Time;durP1;ratioP1;P1;durP2;ratioP2;P2;SDS_P1;SDS_P2;PMS_P1;PMS_P2;Temp;Humidity;BMP_temperature;BMP_pressure;BME280_temperature;BME280_humidity;BME280_pressure;Samples;Min_cycle;Max_cycle;Signal;HPM_P1;HPM_P2
2021/12/23 00:00:16;;;;;;;7.18;6.22;;;23.40;33.00;;;;;;5020057;28;20112;-44
2021/12/23 00:02:42;;;;;;;5.93;5.30;;;23.30;33.00;;;;;;5022690;28;20723;-44
2021/12/23 00:05:10;;;;;;;6.70;5.80;;;23.30;32.90;;;;;;5023144;28;20025;-44
2021/12/23 00:07:36;;;;;;;6.38;5.38;;;23.30;33.00;;;;;;5022476;28;20037;-45
2021/12/23 00:10:08;;;;;;;6.15;5.55;;;23.30;32.90;;;;;;5023826;28;20116;-44
2021/12/23 00:12:42;;;;;;;6.85;6.07;;;23.30;33.00;;;;;;5019215;28;20034;-44
2021/12/23 00:16:02;;;;;;;6.45;5.82;;;23.30;32.90;;;;;;5022894;28;20014;-44
2021/12/23 00:23:36;;;;;;;9.05;6.40;;;23.20;32.80;;;;;;5024204;28;20029;-44
2021/12/23 00:26:03;;;;;;;6.60;5.60;;;23.20;32.80;;;;;;5014498;28;20030;-44
2021/12/23 00:28:30;;;;;;;6.85;6.07;;;23.20;32.80;;;;;;5017572;28;20026;-44
2021/12/23 00:30:56;;;;;;;6.93;5.90;;;23.10;32.80;;;;;;5025185;28;20704;-44
2021/12/23 00:33:23;;;;;;;7.57;6.05;;;23.20;32.80;;;;;;5010205;28;20038;-44
2021/12/23 00:35:49;;;;;;;6.68;5.88;;;23.10;32.80;;;;;;5005335;28;20502;-44
2021/12/23 00:38:21;;;;;;;6.63;5.93;;;23.10;32.70;;;;;;5005335;28;20030;-44
2021/12/23 00:40:47;;;;;;;6.75;5.45;;;23.10;32.70;;;;;;5005572;28;20034;-44
2021/12/23 00:43:13;;;;;;;7.05;5.60;;;23.10;32.70;;;;;;5004669;28;20033;-44
2021/12/23 00:45:39;;;;;;;6.63;5.55;;;23.10;32.70;;;;;;5005234;28;20030;-44
2021/12/23 00:48:05;;;;;;;6.75;5.10;;;23.00;32.60;;;;;;5004308;28;20429;-44
2021/12/23 00:50:31;;;;;;;7.38;6.20;;;23.10;32.70;;;;;;5023742;28;20095;-44
2021/12/23 00:52:59;;;;;;;6.30;5.45;;;23.10;32.70;;;;;;5044051;28;20040;-44
2021/12/23 00:55:25;;;;;;;7.05;5.55;;;23.00;32.60;;;;;;5044332;28;20572;-44
2021/12/23 00:57:51;;;;;;;6.55;5.53;;;23.00;32.60;;;;;;5029573;28;20104;-45
2021/12/23 01:00:20;;;;;;;6.13;5.10;;;23.00;32.60;;;;;;5004708;28;20102;-44
2021/12/23 01:02:47;;;;;;;5.68;5.00;;;23.00;32.60;;;;;;5003685;28;20362;-44
2021/12/23 01:05:17;;;;;;;6.07;5.45;;;23.00;32.60;;;;;;5004504;28;20030;-43
2021/12/23 01:07:43;;;;;;;6.45;5.43;;;23.00;32.60;;;;;;5005115;28;20089;-44
2021/12/23 01:10:09;;;;;;;7.10;5.97;;;22.90;32.60;;;;;;5004830;28;20030;-44
2021/12/23 01:12:48;;;;;;;5.78;5.00;;;22.90;32.60;;;;;;5004545;28;20729;-44
2021/12/23 01:15:38;;;;;;;5.90;5.20;;;22.90;32.60;;;;;;5004738;28;20062;-44
2021/12/23 01:18:12;;;;;;;6.55;5.28;;;22.90;32.60;;;;;;5004601;28;20125;-44
2021/12/23 01:20:51;;;;;;;6.55;5.82;;;22.90;32.70;;;;;;5004058;28;20604;-44
2021/12/23 01:23:22;;;;;;;6.15;4.95;;;22.90;32.60;;;;;;5003765;28;20038;-44
2021/12/23 01:25:49;;;;;;;5.85;5.20;;;22.90;32.60;;;;;;5003636;28;20041;-45
2021/12/23 01:28:15;;;;;;;6.50;5.57;;;22.80;32.50;;;;;;5014050;28;20164;-44
2021/12/23 01:30:41;;;;;;;5.65;5.05;;;22.80;32.50;;;;;;5004968;28;20134;-44
2021/12/23 01:33:09;;;;;;;6.22;5.28;;;22.80;32.50;;;;;;5004740;28;20038;-44
2021/12/23 01:35:36;;;;;;;6.30;5.28;;;22.80;32.60;;;;;;5004628;28;20022;-44
2021/12/23 01:38:02;;;;;;;6.88;5.20;;;22.80;32.50;;;;;;5003867;28;20124;-44
2021/12/23 01:40:28;;;;;;;6.50;5.22;;;22.80;32.50;;;;;;5004784;28;20161;-45
2021/12/23 01:42:55;;;;;;;7.25;5.40;;;22.80;32.50;;;;;;5003852;28;20030;-44
2021/12/23 01:45:23;;;;;;;6.25;4.63;;;22.70;32.60;;;;;;5004975;28;20029;-44
2021/12/23 01:47:50;;;;;;;6.63;5.20;;;22.70;32.60;;;;;;5004712;28;20029;-44
2021/12/23 01:50:19;;;;;;;5.75;5.00;;;22.80;32.60;;;;;;5019945;28;20684;-44
2021/12/23 01:52:45;;;;;;;6.57;5.50;;;22.70;32.60;;;;;;5043248;28;20025;-44
2021/12/23 01:55:12;;;;;;;6.03;5.13;;;22.70;32.60;;;;;;5043953;28;20027;-44
2021/12/23 01:57:39;;;;;;;5.68;4.75;;;22.70;32.60;;;;;;5035598;28;20597;-44
2021/12/23 02:00:13;;;;;;;5.78;4.70;;;22.70;32.60;;;;;;5004413;28;20040;-44
2021/12/23 02:02:39;;;;;;;6.22;5.20;;;22.60;32.50;;;;;;5004165;28;20100;-44
2021/12/23 02:05:06;;;;;;;6.05;5.40;;;22.70;32.60;;;;;;5002980;28;20022;-45
2021/12/23 02:07:32;;;;;;;6.53;5.55;;;22.70;32.60;;;;;;5004765;28;20095;-44
2021/12/23 02:09:58;;;;;;;6.43;5.50;;;22.60;32.50;;;;;;5004299;28;20041;-44
2021/12/23 02:12:25;;;;;;;6.78;5.65;;;22.60;32.50;;;;;;5003958;28;20030;-44
2021/12/23 02:14:51;;;;;;;5.90;4.90;;;22.60;32.50;;;;;;5004089;28;20030;-44
2021/12/23 02:17:17;;;;;;;6.20;5.18;;;22.60;32.50;;;;;;5006039;28;20088;-44
2021/12/23 02:19:43;;;;;;;6.03;5.03;;;22.60;32.50;;;;;;5006352;28;20022;-44
2021/12/23 02:22:09;;;;;;;5.88;5.22;;;22.60;32.50;;;;;;5007489;28;20540;-44
2021/12/23 02:24:35;;;;;;;6.13;5.53;;;22.50;32.50;;;;;;5007825;28;20062;-44
2021/12/23 02:27:01;;;;;;;5.65;4.72;;;22.60;32.50;;;;;;5010528;28;20104;-44
2021/12/23 02:29:27;;;;;;;6.18;5.28;;;22.50;32.50;;;;;;5008294;28;20109;-44
2021/12/23 02:31:53;;;;;;;6.55;5.60;;;22.50;32.50;;;;;;5007562;28;20588;-44
2021/12/23 02:34:20;;;;;;;6.50;5.45;;;22.50;32.50;;;;;;5006576;28;20041;-44
2021/12/23 02:36:54;;;;;;;5.90;5.00;;;22.50;32.50;;;;;;5007253;28;20528;-45
2021/12/23 02:39:22;;;;;;;6.18;5.13;;;22.50;32.50;;;;;;5006624;28;20041;-44
2021/12/23 02:41:48;;;;;;;5.28;4.40;;;22.50;32.50;;;;;;5006892;28;20666;-44
2021/12/23 02:44:14;;;;;;;6.65;5.63;;;22.50;32.50;;;;;;5006574;28;20042;-44
2021/12/23 02:46:40;;;;;;;5.47;4.88;;;22.50;32.50;;;;;;5006344;28;20110;-44
2021/12/23 02:49:06;;;;;;;5.45;4.63;;;22.50;32.50;;;;;;5007139;28;20781;-44
2021/12/23 02:51:32;;;;;;;6.40;5.22;;;22.40;32.40;;;;;;5043219;28;20033;-44
2021/12/23 02:53:58;;;;;;;6.22;5.00;;;22.50;32.50;;;;;;5046389;28;20055;-44
2021/12/23 02:56:24;;;;;;;5.88;5.00;;;22.40;32.50;;;;;;5046944;28;20038;-44
2021/12/23 02:58:50;;;;;;;5.90;4.82;;;22.40;32.40;;;;;;5019632;28;20654;-44
2021/12/23 03:01:17;;;;;;;6.10;5.40;;;22.40;32.50;;;;;;5006730;28;20041;-44
2021/12/23 03:03:44;;;;;;;5.90;5.15;;;22.40;32.50;;;;;;5007015;28;20092;-44
2021/12/23 03:06:18;;;;;;;6.32;5.40;;;22.40;32.50;;;;;;5007499;28;20037;-44
2021/12/23 03:08:56;;;;;;;6.55;5.55;;;22.40;32.50;;;;;;5006703;28;20046;-44
2021/12/23 03:11:25;;;;;;;6.05;5.40;;;22.40;32.50;;;;;;5005371;28;20449;-44
2021/12/23 03:13:51;;;;;;;6.00;5.22;;;22.30;32.50;;;;;;5006076;28;20084;-44
2021/12/23 03:16:25;;;;;;;5.70;4.95;;;22.30;32.50;;;;;;5007083;28;20108;-44
2021/12/23 03:18:51;;;;;;;5.80;5.03;;;22.30;32.50;;;;;;5006155;28;20026;-44
2021/12/23 03:21:17;;;;;;;6.28;5.20;;;22.30;32.50;;;;;;5005237;28;20048;-44
2021/12/23 03:23:43;;;;;;;6.13;5.47;;;22.30;32.50;;;;;;5005682;28;20029;-44
2021/12/23 03:26:10;;;;;;;6.22;5.28;;;22.30;32.50;;;;;;5006255;28;20628;-44
2021/12/23 03:28:35;;;;;;;6.80;5.78;;;22.30;32.50;;;;;;5011370;28;20057;-44
2021/12/23 03:31:02;;;;;;;7.10;5.70;;;22.30;32.50;;;;;;5025618;28;20076;-44
2021/12/23 03:33:28;;;;;;;7.13;5.72;;;22.30;32.50;;;;;;5010173;28;20610;-44
2021/12/23 03:35:54;;;;;;;6.85;5.35;;;22.30;32.60;;;;;;5006739;28;20096;-44
2021/12/23 03:38:20;;;;;;;6.45;5.65;;;22.20;32.50;;;;;;5006498;28;20091;-45
2021/12/23 03:40:46;;;;;;;6.15;5.47;;;22.20;32.50;;;;;;5006099;28;20034;-44
2021/12/23 03:43:14;;;;;;;6.07;5.03;;;22.30;32.50;;;;;;5005754;28;20061;-44
2021/12/23 03:45:42;;;;;;;6.22;5.28;;;22.20;32.50;;;;;;5006217;28;20709;-44
2021/12/23 03:48:09;;;;;;;6.78;5.65;;;22.20;32.50;;;;;;5006215;28;20467;-44
2021/12/23 03:50:35;;;;;;;6.32;5.00;;;22.20;32.50;;;;;;5026845;28;20033;-44
2021/12/23 03:53:01;;;;;;;6.85;5.53;;;22.20;32.50;;;;;;5045544;28;20046;-44
2021/12/23 03:55:27;;;;;;;6.05;5.00;;;22.20;32.50;;;;;;5045851;28;20033;-44
2021/12/23 03:57:52;;;;;;;6.00;5.15;;;22.20;32.50;;;;;;5037088;28;20025;-44
2021/12/23 04:00:21;;;;;;;6.50;5.68;;;22.10;32.50;;;;;;5006200;28;20041;-44
2021/12/23 04:02:47;;;;;;;6.35;5.70;;;22.20;32.50;;;;;;5005993;28;20176;-44
2021/12/23 04:05:13;;;;;;;6.32;5.13;;;22.20;32.50;;;;;;5005972;28;20038;-44
2021/12/23 04:07:39;;;;;;;6.85;5.05;;;22.10;32.60;;;;;;5005985;28;20117;-44
2021/12/23 04:10:07;;;;;;;6.38;5.43;;;22.10;32.50;;;;;;5005768;28;20058;-44
2021/12/23 04:12:33;;;;;;;6.68;5.70;;;22.10;32.60;;;;;;5005265;28;20018;-44
2021/12/23 04:14:59;;;;;;;6.82;5.28;;;22.10;32.60;;;;;;5005445;28;20029;-45
2021/12/23 04:17:24;;;;;;;7.18;5.57;;;22.10;32.60;;;;;;5005658;28;20038;-44
2021/12/23 04:19:50;;;;;;;5.90;5.13;;;22.10;32.60;;;;;;5004584;28;20474;-44
2021/12/23 04:22:16;;;;;;;6.45;5.75;;;22.10;32.50;;;;;;5004209;28;20030;-44
2021/12/23 04:24:42;;;;;;;6.93;5.53;;;22.10;32.70;;;;;;5005115;28;20486;-44
2021/12/23 04:27:08;;;;;;;6.38;5.47;;;22.10;32.70;;;;;;5005438;28;20044;-44
2021/12/23 04:29:34;;;;;;;6.03;5.13;;;22.00;32.60;;;;;;5013158;28;20029;-44
2021/12/23 04:32:01;;;;;;;6.45;5.38;;;22.10;32.60;;;;;;5018407;28;20034;-44
2021/12/23 04:34:27;;;;;;;5.70;5.05;;;22.10;32.60;;;;;;5004505;28;20738;-44
2021/12/23 04:36:53;;;;;;;6.10;5.47;;;22.00;33.10;;;;;;5005322;28;20057;-44
2021/12/23 04:39:20;;;;;;;6.57;5.70;;;22.10;32.70;;;;;;5004657;28;20031;-44
2021/12/23 04:41:46;;;;;;;6.28;5.03;;;22.00;32.50;;;;;;5004407;28;20022;-44
2021/12/23 04:44:12;;;;;;;6.68;5.63;;;22.00;32.50;;;;;;5008667;28;20026;-44
2021/12/23 04:46:38;;;;;;;6.68;5.43;;;22.00;32.50;;;;;;5022571;28;20056;-44
2021/12/23 04:49:04;;;;;;;6.80;5.18;;;22.00;32.50;;;;;;5024179;28;20143;-44
2021/12/23 04:51:29;;;;;;;7.32;5.55;;;22.00;32.70;;;;;;5023745;28;20771;-44
2021/12/23 04:53:55;;;;;;;6.22;5.55;;;22.00;32.90;;;;;;5023343;28;20034;-44
2021/12/23 04:56:21;;;;;;;6.47;5.60;;;22.00;33.60;;;;;;5022707;28;20112;-45
2021/12/23 04:58:47;;;;;;;6.80;5.82;;;22.00;34.10;;;;;;5023029;28;20025;-44
2021/12/23 05:01:20;;;;;;;8.10;6.32;;;22.00;34.60;;;;;;5023270;28;20041;-44
2021/12/23 05:03:47;;;;;;;67.28;24.90;;;22.00;34.90;;;;;;5021728;28;20691;-45
2021/12/23 05:06:16;;;;;;;75.35;29.90;;;22.00;34.90;;;;;;5023673;28;20018;-44
2021/12/23 05:08:43;;;;;;;52.38;24.25;;;22.00;35.00;;;;;;5022077;28;20084;-44
2021/12/23 05:11:09;;;;;;;53.15;23.75;;;22.00;34.90;;;;;;5023328;28;20028;-44
2021/12/23 05:13:34;;;;;;;44.88;20.75;;;22.00;34.70;;;;;;5014917;28;20042;-44
2021/12/23 05:16:00;;;;;;;39.80;19.73;;;22.00;34.50;;;;;;5004196;28;20034;-44
2021/12/23 05:18:26;;;;;;;37.97;17.77;;;22.00;34.30;;;;;;5005001;28;20033;-45
2021/12/23 05:20:51;;;;;;;30.10;16.42;;;22.00;34.20;;;;;;5004594;28;20402;-44
2021/12/23 05:23:17;;;;;;;30.65;15.05;;;22.00;34.00;;;;;;5004903;28;20030;-44
2021/12/23 05:25:43;;;;;;;25.88;15.40;;;22.00;33.90;;;;;;5004474;28;20089;-44
2021/12/23 05:28:09;;;;;;;23.05;13.20;;;22.00;33.90;;;;;;5004364;28;20076;-44
2021/12/23 05:30:35;;;;;;;26.25;12.63;;;22.00;33.70;;;;;;5012454;28;20386;-44
2021/12/23 05:33:01;;;;;;;18.27;11.65;;;22.00;33.70;;;;;;5012275;28;20026;-44
2021/12/23 05:35:27;;;;;;;18.33;11.38;;;22.00;33.60;;;;;;5004939;28;20034;-44
2021/12/23 05:37:54;;;;;;;19.08;11.73;;;22.00;33.60;;;;;;5007157;28;20071;-45
2021/12/23 05:40:24;;;;;;;24.00;11.57;;;22.00;33.50;;;;;;5023853;28;20037;-44
2021/12/23 05:42:51;;;;;;;16.48;11.25;;;22.00;33.40;;;;;;5022373;28;20029;-44
2021/12/23 05:45:17;;;;;;;17.08;10.60;;;22.00;33.60;;;;;;5023858;28;20018;-45
2021/12/23 05:47:43;;;;;;;16.35;9.20;;;22.00;33.60;;;;;;5019548;28;20026;-45
2021/12/23 05:50:11;;;;;;;19.73;10.45;;;22.00;33.60;;;;;;5020437;28;20200;-46
2021/12/23 05:52:37;;;;;;;16.60;10.32;;;22.10;34.50;;;;;;5023938;28;20608;-46
2021/12/23 05:55:07;;;;;;;15.18;9.32;;;22.10;34.60;;;;;;5008210;28;20100;-44
2021/12/23 05:57:34;;;;;;;14.38;9.38;;;22.10;34.30;;;;;;5008317;28;20038;-43
2021/12/23 06:00:00;;;;;;;15.88;9.57;;;22.10;34.30;;;;;;5008646;28;20026;-44
2021/12/23 06:02:27;;;;;;;13.93;9.90;;;22.20;34.10;;;;;;5007676;28;20038;-44
2021/12/23 06:04:52;;;;;;;13.10;8.60;;;22.20;34.20;;;;;;5008560;28;20548;-43
2021/12/23 06:07:18;;;;;;;12.10;7.78;;;22.30;34.10;;;;;;5008507;28;20026;-44
2021/12/23 06:09:44;;;;;;;13.02;7.97;;;22.30;34.00;;;;;;5008009;28;20118;-44
2021/12/23 06:12:10;;;;;;;10.82;7.75;;;22.40;33.90;;;;;;5007608;28;20510;-44
2021/12/23 06:14:36;;;;;;;11.07;8.05;;;22.40;33.80;;;;;;5008002;28;20085;-44
2021/12/23 06:17:02;;;;;;;12.55;7.85;;;22.50;33.90;;;;;;5007836;28;20092;-44
2021/12/23 06:19:28;;;;;;;11.77;7.40;;;22.60;33.80;;;;;;5008294;28;20379;-44
2021/12/23 06:21:54;;;;;;;11.93;7.32;;;22.60;33.70;;;;;;5023000;28;20032;-45
2021/12/23 06:24:20;;;;;;;12.88;8.25;;;22.70;33.70;;;;;;5007230;28;20574;-44
2021/12/23 06:26:45;;;;;;;10.85;7.90;;;22.80;33.60;;;;;;5008025;28;20053;-45
2021/12/23 06:29:11;;;;;;;12.40;7.85;;;22.80;34.30;;;;;;5006561;28;20371;-45
2021/12/23 06:31:37;;;;;;;10.73;7.32;;;23.00;33.60;;;;;;5007653;28;20029;-44
2021/12/23 06:34:03;;;;;;;10.88;7.57;;;23.10;33.60;;;;;;5007112;28;20029;-46
2021/12/23 06:36:29;;;;;;;13.95;8.30;;;23.10;33.50;;;;;;5007853;28;20049;-45
2021/12/23 06:38:55;;;;;;;9.43;6.60;;;23.20;33.50;;;;;;5006972;28;20025;-46
2021/12/23 06:41:21;;;;;;;9.63;7.43;;;23.30;33.50;;;;;;5007627;28;20108;-45
2021/12/23 06:43:47;;;;;;;12.98;8.00;;;23.30;33.30;;;;;;5006758;28;20490;-46
2021/12/23 06:46:13;;;;;;;9.52;6.57;;;23.40;33.20;;;;;;5007214;28;20117;-45
2021/12/23 06:48:38;;;;;;;9.50;7.15;;;23.50;33.40;;;;;;5005327;28;20061;-46
2021/12/23 06:51:04;;;;;;;10.18;6.97;;;23.50;33.20;;;;;;5035818;28;20052;-46
2021/12/23 06:53:31;;;;;;;9.27;6.78;;;23.60;33.20;;;;;;5045594;28;20052;-46
2021/12/23 06:55:56;;;;;;;9.27;6.97;;;23.60;33.10;;;;;;5045282;28;20044;-46
2021/12/23 06:58:23;;;;;;;8.27;6.47;;;23.70;33.10;;;;;;5036448;28;20029;-47
2021/12/23 07:00:53;;;;;;;10.10;6.97;;;23.80;33.00;;;;;;5006723;28;20579;-46
2021/12/23 07:03:19;;;;;;;9.45;6.85;;;23.80;32.90;;;;;;5020879;28;20030;-47
2021/12/23 07:05:44;;;;;;;8.98;6.30;;;23.90;32.90;;;;;;5007105;28;20022;-46
2021/12/23 07:08:26;;;;;;;8.30;6.18;;;23.90;32.90;;;;;;5015844;28;20108;-46
2021/12/23 07:10:52;;;;;;;9.75;6.47;;;24.00;32.60;;;;;;5025213;28;20034;-45
2021/12/23 07:13:17;;;;;;;9.63;7.03;;;24.10;32.30;;;;;;5023598;28;20071;-45
2021/12/23 07:15:43;;;;;;;8.57;6.00;;;24.10;32.10;;;;;;5024669;28;20099;-45
2021/12/23 07:18:09;;;;;;;8.80;7.13;;;24.20;32.10;;;;;;5024984;28;20137;-45
2021/12/23 07:20:34;;;;;;;8.75;7.05;;;24.20;31.80;;;;;;5024446;28;20597;-45
2021/12/23 07:23:00;;;;;;;8.73;6.90;;;24.30;31.60;;;;;;5024882;28;20086;-45
2021/12/23 07:25:27;;;;;;;9.50;7.45;;;24.30;31.60;;;;;;5025728;28;20144;-47
2021/12/23 07:27:53;;;;;;;9.02;6.72;;;24.30;31.40;;;;;;5024645;28;20090;-46
2021/12/23 07:30:20;;;;;;;9.27;6.93;;;24.40;31.30;;;;;;5024070;28;20487;-44
2021/12/23 07:32:50;;;;;;;9.40;7.57;;;24.50;31.20;;;;;;5024706;28;20385;-45
2021/12/23 07:35:17;;;;;;;10.57;7.72;;;24.50;31.30;;;;;;5025252;28;20029;-44
2021/12/23 07:37:43;;;;;;;8.90;6.97;;;24.50;31.10;;;;;;5025334;28;20414;-45
2021/12/23 07:40:13;;;;;;;8.80;7.10;;;24.50;31.00;;;;;;5023022;28;20053;-45
2021/12/23 07:42:42;;;;;;;10.15;7.70;;;24.60;30.80;;;;;;5025151;28;20037;-45
2021/12/23 07:45:08;;;;;;;10.05;7.82;;;24.60;30.80;;;;;;5007218;28;20117;-45
2021/12/23 07:47:36;;;;;;;9.68;7.25;;;24.70;30.80;;;;;;5005930;28;20108;-45
2021/12/23 07:50:03;;;;;;;8.07;6.35;;;24.70;30.80;;;;;;5017935;28;20556;-45
2021/12/23 07:52:29;;;;;;;8.55;6.97;;;24.70;30.80;;;;;;5044972;28;20021;-44
2021/12/23 07:54:55;;;;;;;8.93;6.75;;;24.80;30.60;;;;;;5045596;28;20051;-45
2021/12/23 07:57:20;;;;;;;8.40;6.68;;;24.80;30.60;;;;;;5045098;28;20036;-44
2021/12/23 07:59:46;;;;;;;8.88;6.82;;;24.90;30.70;;;;;;5014638;28;20061;-44
2021/12/23 08:02:12;;;;;;;7.70;6.20;;;24.90;30.70;;;;;;5003928;28;20137;-44
2021/12/23 08:04:38;;;;;;;7.97;7.10;;;24.90;30.60;;;;;;5005957;28;20042;-44
2021/12/23 08:07:03;;;;;;;8.35;6.97;;;25.00;30.60;;;;;;5005713;28;20901;-44
2021/12/23 08:09:30;;;;;;;8.05;6.75;;;25.00;31.20;;;;;;5005754;28;20026;-45
2021/12/23 08:11:56;;;;;;;11.98;7.15;;;25.00;30.50;;;;;;5005873;28;20037;-44
2021/12/23 08:14:22;;;;;;;6.88;6.03;;;25.00;30.50;;;;;;5016593;28;20037;-45
2021/12/23 08:16:48;;;;;;;9.40;6.35;;;25.10;30.40;;;;;;5024791;28;20039;-45
2021/12/23 08:19:13;;;;;;;8.90;6.95;;;25.10;30.40;;;;;;5014797;28;20044;-45
2021/12/23 08:21:40;;;;;;;8.43;6.50;;;25.10;30.20;;;;;;5004151;28;20402;-45
2021/12/23 08:24:06;;;;;;;10.10;7.05;;;25.20;30.30;;;;;;5004819;28;20677;-45
2021/12/23 08:26:39;;;;;;;9.30;7.13;;;25.20;30.20;;;;;;5005399;28;20018;-45
2021/12/23 08:29:06;;;;;;;10.23;7.35;;;25.20;30.30;;;;;;5003626;28;20439;-44
2021/12/23 08:31:32;;;;;;;9.55;7.18;;;25.30;30.10;;;;;;5005381;28;20034;-45
2021/12/23 08:33:57;;;;;;;9.02;7.38;;;25.30;30.10;;;;;;5003967;28;20049;-45
2021/12/23 08:36:24;;;;;;;7.70;6.28;;;25.30;30.10;;;;;;5005352;28;20033;-45
2021/12/23 08:38:50;;;;;;;8.60;6.55;;;25.30;30.00;;;;;;5005289;28;20406;-44
2021/12/23 08:41:16;;;;;;;8.57;6.63;;;25.30;30.00;;;;;;5005016;28;20033;-44
2021/12/23 08:43:44;;;;;;;7.97;6.82;;;25.30;30.00;;;;;;5004335;28;20049;-44
2021/12/23 08:46:10;;;;;;;10.20;7.07;;;25.40;29.90;;;;;;5005362;28;20101;-45
2021/12/23 08:48:36;;;;;;;8.18;6.03;;;25.40;29.90;;;;;;5004065;28;20032;-43
2021/12/23 08:51:02;;;;;;;7.20;5.95;;;25.40;29.90;;;;;;5032460;28;20436;-45
2021/12/23 08:53:28;;;;;;;7.47;5.90;;;25.40;29.90;;;;;;5043383;28;20025;-44
2021/12/23 08:55:53;;;;;;;8.20;6.53;;;25.50;29.80;;;;;;5044626;28;20033;-44
2021/12/23 08:58:19;;;;;;;8.85;6.43;;;25.50;29.70;;;;;;5038886;28;20041;-46
2021/12/23 09:00:45;;;;;;;7.78;6.18;;;25.50;29.70;;;;;;5004653;28;20046;-45
2021/12/23 09:03:11;;;;;;;7.13;5.88;;;25.50;29.70;;;;;;5004272;28;20026;-44
2021/12/23 09:05:39;;;;;;;7.45;5.93;;;25.60;29.70;;;;;;5003196;28;20025;-44
2021/12/23 09:08:05;;;;;;;7.43;5.88;;;25.50;29.60;;;;;;5004309;28;20084;-44
2021/12/23 09:10:32;;;;;;;7.38;6.30;;;25.50;29.60;;;;;;5004768;28;20084;-44
2021/12/23 09:12:58;;;;;;;7.82;5.50;;;25.60;29.60;;;;;;5004196;28;20117;-44
2021/12/23 09:15:23;;;;;;;6.97;5.75;;;25.60;29.50;;;;;;5004666;28;20113;-44
2021/12/23 09:17:50;;;;;;;9.15;6.35;;;25.50;29.50;;;;;;5003942;28;20405;-45
2021/12/23 09:20:18;;;;;;;6.63;5.65;;;25.60;29.50;;;;;;5003003;28;20590;-44
2021/12/23 09:22:44;;;;;;;7.40;5.93;;;25.60;29.40;;;;;;5003992;28;20025;-45
2021/12/23 09:25:23;;;;;;;8.23;5.82;;;25.60;29.40;;;;;;5004385;28;20080;-44
2021/12/23 09:28:06;;;;;;;8.30;5.68;;;25.60;29.40;;;;;;5003981;28;20033;-44
2021/12/23 09:33:18;;;;;;;6.85;5.22;;;25.60;29.50;;;;;;5004347;28;20052;-44
2021/12/23 09:35:44;;;;;;;6.38;5.38;;;25.60;29.40;;;;;;5004746;28;20026;-44
2021/12/23 09:38:11;;;;;;;6.55;5.47;;;25.60;29.40;;;;;;5004205;28;20042;-44
2021/12/23 09:40:38;;;;;;;6.22;4.80;;;25.60;29.30;;;;;;5004412;28;20038;-44
2021/12/23 09:43:07;;;;;;;8.95;5.80;;;25.70;29.30;;;;;;5003752;28;20772;-45
2021/12/23 09:45:38;;;;;;;6.18;4.95;;;25.60;29.30;;;;;;5004529;28;20033;-45
2021/12/23 09:48:05;;;;;;;6.57;4.82;;;25.70;29.30;;;;;;5004240;28;20637;-44
2021/12/23 09:50:36;;;;;;;7.55;5.22;;;25.70;29.30;;;;;;5023723;28;20116;-44
2021/12/23 09:53:03;;;;;;;6.57;5.30;;;25.70;29.30;;;;;;5041975;28;20144;-44
2021/12/23 09:55:29;;;;;;;7.13;5.55;;;25.70;29.30;;;;;;5042381;28;20619;-45
2021/12/23 09:57:58;;;;;;;6.80;5.55;;;25.70;29.20;;;;;;5044017;28;20448;-44
2021/12/23 10:00:28;;;;;;;6.57;5.22;;;25.70;29.20;;;;;;5006792;28;20034;-45
2021/12/23 10:02:54;;;;;;;6.63;5.47;;;25.70;29.30;;;;;;5003664;28;20025;-45
2021/12/23 10:05:28;;;;;;;5.82;4.82;;;25.70;29.20;;;;;;5004063;28;20030;-44
2021/12/23 10:07:55;;;;;;;6.75;4.85;;;25.70;29.20;;;;;;5004197;28;20030;-44
2021/12/23 10:10:40;;;;;;;5.82;4.88;;;25.70;29.10;;;;;;5004261;28;20038;-45
2021/12/23 10:26:52;;;;;;;6.55;5.10;;;25.70;29.00;;;;;;5004168;28;20096;-44
2021/12/23 10:38:22;;;;;;;6.00;4.32;;;25.70;29.10;;;;;;5003888;28;20049;-45
2021/12/23 10:40:52;;;;;;;6.07;5.03;;;25.70;29.20;;;;;;5007636;28;20064;-44
2021/12/23 10:43:42;;;;;;;6.00;4.90;;;25.70;29.20;;;;;;5006943;28;20033;-47
2021/12/23 10:46:20;;;;;;;6.00;4.43;;;25.70;29.20;;;;;;5007430;28;20041;-44
2021/12/23 10:49:29;;;;;;;5.65;4.63;;;25.70;29.20;;;;;;5006703;28;20049;-44
2021/12/23 10:52:16;;;;;;;6.50;4.65;;;25.70;29.00;;;;;;5046236;28;20036;-44
2021/12/23 11:00:24;;;;;;;5.20;4.28;;;25.70;29.20;;;;;;5015017;28;20065;-45
2021/12/23 11:03:12;;;;;;;6.05;5.43;;;25.70;29.10;;;;;;5021533;28;20065;-46
2021/12/23 11:05:47;;;;;;;4.85;4.10;;;25.70;29.10;;;;;;5006888;28;20876;-45
2021/12/23 11:38:39;;;;;;;5.65;4.85;;;25.70;29.10;;;;;;5006776;28;20514;-44
2021/12/23 11:41:18;;;;;;;5.82;4.90;;;25.60;29.20;;;;;;5006231;28;20113;-47
2021/12/23 11:43:53;;;;;;;4.82;4.00;;;25.60;29.10;;;;;;5005386;28;20041;-44
2021/12/23 11:46:34;;;;;;;5.07;4.05;;;25.60;29.20;;;;;;5006437;28;20017;-44
2021/12/23 11:49:02;;;;;;;4.75;3.70;;;25.60;29.10;;;;;;5005881;28;20486;-44
2021/12/23 11:51:35;;;;;;;5.70;4.72;;;25.70;29.20;;;;;;5041165;28;20040;-44
2021/12/23 11:54:03;;;;;;;6.25;5.32;;;25.70;29.10;;;;;;5045245;28;20043;-44
2021/12/23 11:56:31;;;;;;;4.95;4.18;;;25.60;29.10;;;;;;5045560;28;20032;-44
2021/12/23 11:59:00;;;;;;;6.03;4.68;;;25.60;29.10;;;;;;5037082;28;20038;-45
2021/12/23 12:01:28;;;;;;;6.25;4.97;;;25.60;29.30;;;;;;5005859;28;20128;-44
2021/12/23 12:04:06;;;;;;;5.32;4.57;;;25.60;29.20;;;;;;5005309;28;20045;-45
2021/12/23 12:06:47;;;;;;;5.57;4.35;;;25.60;29.30;;;;;;5005952;28;20559;-44
2021/12/23 12:09:26;;;;;;;6.13;4.70;;;25.60;29.30;;;;;;5004595;28;20394;-45
2021/12/23 12:12:06;;;;;;;5.28;4.60;;;25.60;29.30;;;;;;5004304;28;20521;-44
2021/12/23 12:14:41;;;;;;;7.43;4.85;;;25.60;29.20;;;;;;5004245;28;20494;-45
2021/12/23 12:19:53;;;;;;;5.70;4.95;;;25.60;29.30;;;;;;5003901;28;20030;-44
2021/12/23 12:22:55;;;;;;;6.25;4.90;;;25.60;29.20;;;;;;5004681;28;20395;-44
2021/12/23 12:25:23;;;;;;;6.20;4.82;;;25.60;29.20;;;;;;5005658;28;20057;-44
2021/12/23 12:27:50;;;;;;;6.28;4.57;;;25.60;29.20;;;;;;5005677;28;20018;-44
2021/12/23 12:30:18;;;;;;;5.22;4.10;;;25.60;29.20;;;;;;5005236;28;20034;-44
2021/12/23 12:32:44;;;;;;;5.43;4.38;;;25.60;29.30;;;;;;5005242;28;20026;-44
2021/12/23 12:35:20;;;;;;;6.18;4.80;;;25.60;29.20;;;;;;5005699;28;20517;-44
2021/12/23 12:37:50;;;;;;;6.25;5.22;;;25.60;29.20;;;;;;5005590;28;20030;-44
2021/12/23 12:40:17;;;;;;;5.25;4.50;;;25.60;29.20;;;;;;5005472;28;20112;-44
2021/12/23 12:42:46;;;;;;;5.97;5.05;;;25.60;29.30;;;;;;5005039;28;20149;-44
2021/12/23 12:45:25;;;;;;;6.15;5.20;;;25.60;29.30;;;;;;5005336;28;20444;-44
2021/12/23 12:47:56;;;;;;;6.00;5.03;;;25.60;29.20;;;;;;5004988;28;20029;-45
2021/12/23 12:50:28;;;;;;;6.43;5.13;;;25.60;29.30;;;;;;5022382;28;20025;-44
2021/12/23 12:53:00;;;;;;;5.40;4.17;;;25.60;29.30;;;;;;5044366;28;20045;-44
2021/12/23 12:55:27;;;;;;;6.22;5.18;;;25.60;29.30;;;;;;5044550;28;20033;-44
2021/12/23 12:57:57;;;;;;;6.30;5.10;;;25.60;29.30;;;;;;5044394;28;20025;-44
2021/12/23 13:00:35;;;;;;;5.93;5.32;;;25.50;29.20;;;;;;5014854;28;20034;-44
2021/12/23 13:03:14;;;;;;;6.30;5.03;;;25.50;29.30;;;;;;5004085;28;20238;-45
2021/12/23 13:05:43;;;;;;;6.93;5.65;;;25.50;29.40;;;;;;5005114;28;20475;-45
2021/12/23 13:08:16;;;;;;;5.82;4.80;;;25.50;29.40;;;;;;5005079;28;20084;-44
2021/12/23 13:10:47;;;;;;;5.90;5.00;;;25.50;29.30;;;;;;5005144;28;20029;-44
2021/12/23 13:13:35;;;;;;;7.65;5.35;;;25.50;29.30;;;;;;5004571;28;20025;-44
2021/12/23 13:16:14;;;;;;;6.07;5.00;;;25.40;29.30;;;;;;5004901;28;20038;-43
2021/12/23 13:18:40;;;;;;;6.20;5.55;;;25.50;29.30;;;;;;5004290;28;20037;-44
2021/12/23 13:21:07;;;;;;;5.93;4.80;;;25.50;29.40;;;;;;5005010;28;20034;-44
2021/12/23 13:23:43;;;;;;;5.35;4.43;;;25.40;29.40;;;;;;5004340;28;20054;-45
2021/12/23 13:26:10;;;;;;;5.88;4.93;;;25.50;29.40;;;;;;5005071;28;20030;-44
2021/12/23 13:28:45;;;;;;;6.38;5.03;;;25.50;29.40;;;;;;5004514;28;20457;-44
2021/12/23 13:31:19;;;;;;;5.55;4.63;;;25.50;29.40;;;;;;5003648;28;20056;-44
2021/12/23 13:33:57;;;;;;;6.03;4.50;;;25.50;29.40;;;;;;5004290;28;20040;-44
2021/12/23 13:36:32;;;;;;;5.95;4.72;;;25.50;29.40;;;;;;5004643;28;20455;-43
2021/12/23 13:39:00;;;;;;;5.38;4.55;;;25.50;29.40;;;;;;5004662;28;20034;-44
2021/12/23 13:41:54;;;;;;;6.38;4.57;;;25.50;29.40;;;;;;5004557;28;20038;-44
2021/12/23 13:44:26;;;;;;;5.25;4.20;;;25.50;29.40;;;;;;5003880;28;20166;-44
2021/12/23 13:47:04;;;;;;;5.50;4.47;;;25.50;29.40;;;;;;5004341;28;20462;-44
2021/12/23 13:49:32;;;;;;;5.80;4.60;;;25.50;29.40;;;;;;5007417;28;20034;-44
2021/12/23 13:51:58;;;;;;;6.32;4.70;;;25.50;29.30;;;;;;5044314;28;20036;-44
2021/12/23 13:54:30;;;;;;;5.30;4.38;;;25.50;29.30;;;;;;5042318;28;20025;-44
2021/12/23 13:56:55;;;;;;;5.20;4.50;;;25.50;29.30;;;;;;5044274;28;20111;-44
2021/12/23 13:59:24;;;;;;;5.20;4.05;;;25.50;29.40;;;;;;5033664;28;20203;-44
2021/12/23 14:02:11;;;;;;;4.80;4.07;;;25.50;29.40;;;;;;5004709;28;20063;-44